createdAt,value
2023-08-02T00:04:11.320Z,56.80
2023-08-02T00:09:14.957Z,63.78
2023-08-02T00:14:17.998Z,62.41
2023-08-02T00:19:20.901Z,57.53
2023-08-02T00:24:23.749Z,62.51
2023-08-02T00:29:26.820Z,64.40
2023-08-02T00:34:29.683Z,58.97
2023-08-02T00:39:32.535Z,59.08
2023-08-02T00:44:35.409Z,65.31
2023-08-02T00:49:38.410Z,59.62
2023-08-02T00:54:43.196Z,62.60
2023-08-02T00:59:46.140Z,64.01
2023-08-02T01:04:49.511Z,58.52
2023-08-02T01:10:13.935Z,62.21
2023-08-02T01:15:18.126Z,61.71
2023-08-02T01:20:20.985Z,60.37
2023-08-02T01:25:26.632Z,64.46
2023-08-02T01:30:34.952Z,59.53
2023-08-02T01:35:38.559Z,58.25
2023-08-02T01:40:41.512Z,64.08
2023-08-02T01:45:44.433Z,58.96
2023-08-02T01:50:47.713Z,63.07
2023-08-02T01:55:50.596Z,60.22
2023-08-02T02:00:53.543Z,59.68
2023-08-02T02:05:56.544Z,65.40
2023-08-02T02:10:59.791Z,58.54
2023-08-02T02:16:02.775Z,59.33
2023-08-02T02:21:06.044Z,63.96
2023-08-02T02:26:09.672Z,57.45
2023-08-02T02:31:12.507Z,59.60
2023-08-02T02:36:15.428Z,66.61
2023-08-02T02:41:18.285Z,60.19
2023-08-02T02:46:21.101Z,59.46
2023-08-02T02:51:24.006Z,65.03
2023-08-02T02:56:26.975Z,63.47
2023-08-02T03:01:29.921Z,58.97
2023-08-02T03:06:32.798Z,58.78
2023-08-02T03:12:12.109Z,63.97
2023-08-02T03:17:24.080Z,58.80
2023-08-02T03:22:26.858Z,59.30
2023-08-02T03:27:30.114Z,66.82
2023-08-02T03:32:32.907Z,62.51
2023-08-02T03:37:35.768Z,58.72
2023-08-02T03:42:38.491Z,59.21
2023-08-02T03:47:41.744Z,64.59
2023-08-02T03:52:44.646Z,59.76
2023-08-02T03:57:47.391Z,59.36
2023-08-02T04:02:50.308Z,64.86
2023-08-02T04:07:53.669Z,59.41
2023-08-02T04:12:56.460Z,62.17
2023-08-02T04:17:59.376Z,64.64
2023-08-02T04:23:04.601Z,58.98
2023-08-02T04:28:08.090Z,63.41
2023-08-02T04:33:10.963Z,63.18
2023-08-02T04:38:13.989Z,58.50
2023-08-02T04:43:16.740Z,64.19
2023-08-02T04:48:19.619Z,58.47
2023-08-02T04:53:22.536Z,60.33
2023-08-02T04:58:25.375Z,61.74
2023-08-02T05:03:28.224Z,58.26
2023-08-02T05:08:33.448Z,62.97
2023-08-02T05:13:36.456Z,57.67
2023-08-02T05:18:39.410Z,62.10
2023-08-02T05:23:43.384Z,58.04
2023-08-02T05:28:46.245Z,62.39
2023-08-02T05:33:49.566Z,58.08
2023-08-02T05:38:52.697Z,62.63
2023-08-02T05:43:55.503Z,57.24
2023-08-02T05:48:58.446Z,59.36
2023-08-02T05:54:01.351Z,61.50
2023-08-02T05:59:04.288Z,57.57
2023-08-02T06:04:07.378Z,60.55
2023-08-02T06:09:10.711Z,59.22
2023-08-02T06:14:14.750Z,58.16
2023-08-02T06:19:17.726Z,62.03
2023-08-02T06:24:22.873Z,57.05
2023-08-02T06:29:25.873Z,60.56
2023-08-02T06:34:29.057Z,59.73
2023-08-02T06:39:33.705Z,58.06
2023-08-02T06:44:36.943Z,61.53
2023-08-02T06:49:41.200Z,60.61
2023-08-02T06:54:44.352Z,57.54
2023-08-02T06:59:47.490Z,61.01
2023-08-02T07:04:50.536Z,60.35
2023-08-02T07:09:56.512Z,55.66
2023-08-02T07:14:59.392Z,58.64
2023-08-02T07:20:03.071Z,62.09
2023-08-02T07:25:06.889Z,58.21
2023-08-02T07:30:10.297Z,55.90
2023-08-02T07:35:13.311Z,57.09
2023-08-02T07:40:16.224Z,61.35
2023-08-02T07:45:19.351Z,56.92
2023-08-02T07:50:22.565Z,56.62
2023-08-02T07:55:25.578Z,58.66
2023-08-02T08:00:56.710Z,59.97
2023-08-02T08:06:16.783Z,60.55
2023-08-02T08:11:21.690Z,60.25
2023-08-02T08:16:26.242Z,60.01
2023-08-02T08:21:29.152Z,60.03
2023-08-02T08:26:32.045Z,59.78
2023-08-02T08:31:35.138Z,59.84
2023-08-02T08:36:38.188Z,58.25
2023-08-02T08:41:41.373Z,57.85
2023-08-02T08:46:45.996Z,58.50
2023-08-02T08:51:53.889Z,59.09
2023-08-02T08:56:57.961Z,58.67
2023-08-02T09:02:01.197Z,58.08
2023-08-02T09:07:04.447Z,57.36
2023-08-02T09:12:10.287Z,57.68
2023-08-02T09:17:16.506Z,57.57
2023-08-02T09:22:19.743Z,57.97
2023-08-02T09:27:22.630Z,57.33
2023-08-02T09:32:27.177Z,56.22
2023-08-02T09:37:37.135Z,57.39
2023-08-02T09:42:40.169Z,54.92
2023-08-02T09:47:52.816Z,53.94
2023-08-02T09:52:56.646Z,53.00
2023-08-02T09:58:01.365Z,52.27
2023-08-02T10:03:15.637Z,52.99
2023-08-02T10:08:23.928Z,51.29
2023-08-02T10:13:31.522Z,50.12
2023-08-02T10:18:35.653Z,50.15
2023-08-02T10:23:39.320Z,51.45
2023-08-02T10:28:42.731Z,50.73
2023-08-02T10:33:45.738Z,50.29
2023-08-02T10:38:50.591Z,50.30
2023-08-02T10:43:55.150Z,50.61
2023-08-02T10:49:18.835Z,50.35
2023-08-02T10:54:24.381Z,50.02
2023-08-02T10:59:30.465Z,49.86
2023-08-02T11:04:37.519Z,50.43
2023-08-02T11:09:42.464Z,51.08
2023-08-02T11:14:51.395Z,50.85
2023-08-02T11:25:01.484Z,50.59
2023-08-02T11:30:08.636Z,50.28
2023-08-02T11:35:19.430Z,49.69
2023-08-02T11:40:26.656Z,49.32
2023-08-02T11:45:31.581Z,48.12
2023-08-02T11:50:36.402Z,47.41
2023-08-02T11:55:41.134Z,46.92
2023-08-02T12:00:45.466Z,46.65
2023-08-02T12:05:48.473Z,46.58
2023-08-02T12:10:52.529Z,45.60
2023-08-02T12:16:07.477Z,44.65
2023-08-02T12:21:16.844Z,43.92
2023-08-02T12:26:34.477Z,44.41
2023-08-02T12:31:43.310Z,45.23
2023-08-02T12:36:49.129Z,46.49
2023-08-02T12:41:52.249Z,46.46
2023-08-02T12:46:55.170Z,46.03
2023-08-02T12:51:58.059Z,46.62
2023-08-02T12:57:00.992Z,47.17
2023-08-02T13:02:04.313Z,46.38
2023-08-02T13:07:07.524Z,46.07
2023-08-02T13:12:13.992Z,44.33
2023-08-02T13:17:21.056Z,44.86
2023-08-02T13:22:25.301Z,45.45
2023-08-02T13:27:34.284Z,45.65
2023-08-02T13:32:39.574Z,45.66
2023-08-02T13:37:43.234Z,44.49
2023-08-02T13:42:46.655Z,43.60
2023-08-02T13:47:49.738Z,42.94
2023-08-02T13:52:52.773Z,42.75
2023-08-02T13:57:55.912Z,43.18
2023-08-02T14:02:59.025Z,42.80
2023-08-02T14:08:02.045Z,43.25
2023-08-02T14:13:04.897Z,43.83
2023-08-02T14:18:07.883Z,44.67
2023-08-02T14:23:11.182Z,45.19
2023-08-02T14:28:14.147Z,45.24
2023-08-02T14:33:18.013Z,45.94
2023-08-02T14:38:21.078Z,46.24
2023-08-02T14:43:24.017Z,46.31
2023-08-02T14:48:28.155Z,46.40
2023-08-02T14:53:31.151Z,46.00
2023-08-02T14:58:34.215Z,45.10
2023-08-02T15:03:37.105Z,43.32
2023-08-02T15:08:40.060Z,44.52
2023-08-02T15:13:43.204Z,44.61
2023-08-02T15:18:46.890Z,44.90
2023-08-02T15:23:51.382Z,45.65
2023-08-02T15:28:54.959Z,46.43
2023-08-02T15:33:57.953Z,46.58
2023-08-02T15:39:01.138Z,46.39
2023-08-02T15:44:04.708Z,45.05
2023-08-02T15:49:07.749Z,44.70
2023-08-02T15:54:10.806Z,44.05
2023-08-02T15:59:16.635Z,41.67
2023-08-02T16:04:19.747Z,42.59
2023-08-02T16:09:22.869Z,40.66
2023-08-02T16:14:26.740Z,38.86
2023-08-02T16:19:32.764Z,37.56
2023-08-02T16:24:37.212Z,38.23
2023-08-02T16:29:40.057Z,38.77
2023-08-02T16:34:43.389Z,40.12
2023-08-02T16:39:46.295Z,39.36
2023-08-02T16:44:49.193Z,36.24
2023-08-02T16:49:52.091Z,34.14
2023-08-02T16:54:55.062Z,35.05
2023-08-02T16:59:58.008Z,32.00
2023-08-02T17:05:00.841Z,31.74
2023-08-02T17:10:04.649Z,30.35
2023-08-02T17:15:07.983Z,27.86
2023-08-02T17:20:12.082Z,27.46
2023-08-02T17:25:15.731Z,28.35
2023-08-02T17:30:18.950Z,29.50
2023-08-02T17:35:21.854Z,30.01
2023-08-02T17:40:24.920Z,31.13
2023-08-02T17:45:28.069Z,32.59
2023-08-02T17:50:31.126Z,34.12
2023-08-02T17:55:34.213Z,35.23
2023-08-02T18:00:40.004Z,37.23
2023-08-02T18:05:42.888Z,38.33
2023-08-02T18:10:45.854Z,39.09
2023-08-02T18:15:48.790Z,40.73
2023-08-02T18:20:51.655Z,42.52
2023-08-02T18:25:55.026Z,43.30
2023-08-02T18:31:05.762Z,43.88
2023-08-02T18:36:14.602Z,44.96
2023-08-02T18:41:20.084Z,45.70
2023-08-02T18:46:23.001Z,47.40
2023-08-02T18:51:25.936Z,47.52
2023-08-02T18:56:28.798Z,49.91
2023-08-02T19:01:31.794Z,51.13
2023-08-02T19:06:35.025Z,50.59
2023-08-02T19:11:37.986Z,50.58
2023-08-02T19:16:41.341Z,51.47
2023-08-02T19:21:50.849Z,52.59
2023-08-02T19:26:53.981Z,53.22
2023-08-02T19:32:00.345Z,52.85
2023-08-02T19:37:06.506Z,53.58
2023-08-02T19:42:15.154Z,53.95
2023-08-02T19:47:25.020Z,53.96
2023-08-02T19:52:32.165Z,56.43
2023-08-02T19:57:44.876Z,56.48
2023-08-02T20:02:48.495Z,56.46
2023-08-02T20:07:51.668Z,56.10
2023-08-02T20:12:57.138Z,57.73
2023-08-02T20:18:00.713Z,59.20
2023-08-02T20:23:06.934Z,59.13
2023-08-02T20:28:13.286Z,59.96
2023-08-02T20:33:16.128Z,59.83
2023-08-02T20:38:19.145Z,59.99
2023-08-02T20:43:22.017Z,59.62
2023-08-02T20:48:24.924Z,60.89
2023-08-02T20:53:27.857Z,61.17
2023-08-02T20:58:31.274Z,61.24
2023-08-02T21:03:37.858Z,60.01
2023-08-02T21:08:43.739Z,59.45
2023-08-02T21:13:46.697Z,60.99
2023-08-02T21:18:55.406Z,69.94
2023-08-02T21:23:59.526Z,61.33
2023-08-02T21:29:04.867Z,53.00
2023-08-02T21:34:17.121Z,53.20
2023-08-02T21:39:20.928Z,55.43
2023-08-02T21:44:30.405Z,55.97
2023-08-02T21:49:33.687Z,56.77
2023-08-02T21:54:36.932Z,58.78
2023-08-02T21:59:39.845Z,59.63
2023-08-02T22:04:45.245Z,59.21
2023-08-02T22:09:54.846Z,59.98
2023-08-02T22:15:03.514Z,64.34
2023-08-02T22:20:07.566Z,63.56
2023-08-02T22:25:10.420Z,52.85
2023-08-02T22:30:13.777Z,53.54
2023-08-02T22:35:16.640Z,54.33
2023-08-02T22:40:19.629Z,55.48
2023-08-02T22:45:23.683Z,56.45
2023-08-02T22:55:32.764Z,59.52
2023-08-02T23:00:36.345Z,59.20
2023-08-02T23:05:44.487Z,59.98
2023-08-02T23:10:47.524Z,60.75
2023-08-02T23:15:50.408Z,61.32
2023-08-02T23:20:54.231Z,66.42
2023-08-02T23:26:01.748Z,55.47
2023-08-02T23:31:07.489Z,55.14
2023-08-02T23:36:10.327Z,56.18
2023-08-02T23:41:13.297Z,57.39
2023-08-02T23:46:18.369Z,58.14
2023-08-02T23:51:21.735Z,58.41
2023-08-02T23:56:24.602Z,59.52
